createdAt,value
2019-02-23T00:00:15.181Z,103869.46
2019-02-23T00:02:43.833Z,103868.00
2019-02-23T00:05:12.529Z,103871.84
2019-02-23T00:07:41.385Z,103866.56
2019-02-23T00:10:10.111Z,103862.61
2019-02-23T00:12:38.861Z,103865.49
2019-02-23T00:15:08.448Z,103867.39
2019-02-23T00:17:37.206Z,103866.66
2019-02-23T00:20:08.420Z,103868.28
2019-02-23T00:22:37.118Z,103860.25
2019-02-23T00:25:06.051Z,103855.65
2019-02-23T00:27:34.776Z,103860.91
2019-02-23T00:30:03.510Z,103854.71
2019-02-23T00:32:32.326Z,103854.13
2019-02-23T00:35:00.973Z,103858.09
2019-02-23T00:37:29.747Z,103851.30
2019-02-23T00:39:58.388Z,103847.49
2019-02-23T00:42:27.117Z,103845.52
2019-02-23T00:44:55.766Z,103840.80
2019-02-23T00:47:24.406Z,103835.32
2019-02-23T00:49:53.591Z,103836.75
2019-02-23T00:52:22.254Z,103832.06
2019-02-23T00:54:50.954Z,103833.88
2019-02-23T00:57:19.739Z,103834.89
2019-02-23T00:59:48.480Z,103838.44
2019-02-23T01:02:17.191Z,103829.83
2019-02-23T01:04:45.967Z,103834.36
2019-02-23T01:07:14.702Z,103824.90
2019-02-23T01:09:43.420Z,103826.67
2019-02-23T01:12:12.222Z,103824.72
2019-02-23T01:14:40.932Z,103820.78
2019-02-23T01:17:09.657Z,103812.06
2019-02-23T01:19:47.410Z,103801.09
2019-02-23T01:22:08.880Z,103808.37
2019-02-23T01:24:37.438Z,103809.83
2019-02-23T01:27:06.177Z,103819.94
2019-02-23T01:29:34.974Z,103820.36
2019-02-23T01:32:03.708Z,103814.32
2019-02-23T01:34:32.541Z,103697.30
2019-02-23T01:37:01.265Z,103821.22
2019-02-23T01:39:29.978Z,103819.09
2019-02-23T01:41:58.769Z,103814.86
2019-02-23T01:44:27.612Z,103812.64
2019-02-23T01:46:56.238Z,103816.34
2019-02-23T01:49:24.949Z,103811.70
2019-02-23T01:51:53.795Z,103808.00
2019-02-23T01:54:22.529Z,103810.84
2019-02-23T01:56:51.276Z,103818.55
2019-02-23T01:59:19.999Z,103824.67
2019-02-23T02:01:48.729Z,103820.66
2019-02-23T02:04:17.409Z,103820.56
2019-02-23T02:06:46.216Z,103821.15
2019-02-23T02:09:15.021Z,103822.00
2019-02-23T02:11:43.708Z,103822.02
2019-02-23T02:14:12.443Z,103812.10
2019-02-23T02:16:42.024Z,103793.48
2019-02-23T02:19:10.795Z,103807.40
2019-02-23T02:21:39.545Z,103811.30
2019-02-23T02:24:08.285Z,103808.08
2019-02-23T02:26:37.044Z,103803.37
2019-02-23T02:29:05.798Z,103800.62
2019-02-23T02:31:34.493Z,103805.22
2019-02-23T02:34:08.067Z,103807.45
2019-02-23T02:36:36.780Z,103812.53
2019-02-23T02:39:11.163Z,103802.44
2019-02-23T02:41:39.821Z,103805.11
2019-02-23T02:44:08.437Z,103806.59
2019-02-23T02:46:37.153Z,103810.56
2019-02-23T02:49:05.892Z,103797.95
2019-02-23T02:51:34.604Z,103799.36
2019-02-23T02:54:03.363Z,103802.41
2019-02-23T02:56:32.122Z,103812.23
2019-02-23T02:59:00.881Z,103810.45
2019-02-23T03:01:29.628Z,103810.08
2019-02-23T03:03:58.330Z,103814.23
2019-02-23T03:06:27.071Z,103810.48
2019-02-23T03:08:55.918Z,103819.72
2019-02-23T03:11:24.833Z,103812.70
2019-02-23T03:13:53.526Z,103811.02
2019-02-23T03:16:22.284Z,103814.91
2019-02-23T03:18:51.042Z,103813.59
2019-02-23T03:21:19.762Z,103813.72
2019-02-23T03:23:48.448Z,103813.86
2019-02-23T03:26:17.178Z,103811.05
2019-02-23T03:28:45.888Z,103818.45
2019-02-23T03:31:14.599Z,103823.70
2019-02-23T03:33:43.207Z,103832.53
2019-02-23T03:36:11.956Z,103840.69
2019-02-23T03:38:40.760Z,103828.67
2019-02-23T03:41:09.623Z,103836.06
2019-02-23T03:43:38.389Z,103835.20
2019-02-23T03:46:07.145Z,103831.09
2019-02-23T03:48:35.869Z,103841.54
2019-02-23T03:51:05.178Z,103843.98
2019-02-23T03:53:33.942Z,103742.94
2019-02-23T03:56:02.680Z,103845.80
2019-02-23T03:58:31.397Z,103847.40
2019-02-23T04:01:00.182Z,103842.90
2019-02-23T04:03:29.067Z,103847.05
2019-02-23T04:05:57.769Z,103844.13
2019-02-23T04:08:26.403Z,103844.59
2019-02-23T04:10:55.136Z,103846.64
2019-02-23T04:13:23.767Z,103842.63
2019-02-23T04:15:52.444Z,103846.90
2019-02-23T04:18:21.172Z,103780.85
2019-02-23T04:21:01.366Z,103844.80
2019-02-23T04:23:20.388Z,103847.61
2019-02-23T04:25:49.096Z,103845.92
2019-02-23T04:28:17.859Z,103847.73
2019-02-23T04:30:46.578Z,103850.41
2019-02-23T04:33:15.205Z,103854.05
2019-02-23T04:35:46.496Z,103857.66
2019-02-23T04:38:14.341Z,103854.89
2019-02-23T04:40:43.050Z,103850.55
2019-02-23T04:43:11.710Z,103846.94
2019-02-23T04:45:40.425Z,103845.73
2019-02-23T04:48:09.133Z,103841.96
2019-02-23T04:50:37.819Z,103846.58
2019-02-23T04:53:06.532Z,103838.44
2019-02-23T04:55:36.729Z,103837.11
2019-02-23T04:58:05.865Z,103837.45
2019-02-23T05:00:37.403Z,103840.13
2019-02-23T05:03:07.109Z,103832.20
2019-02-23T05:05:35.848Z,103834.28
2019-02-23T05:08:05.188Z,103832.09
2019-02-23T05:10:33.935Z,103795.73
2019-02-23T05:13:02.569Z,103822.77
2019-02-23T05:15:31.295Z,103826.17
2019-02-23T05:18:00.008Z,103830.05
2019-02-23T05:20:28.745Z,103830.77
2019-02-23T05:22:57.606Z,103826.28
2019-02-23T05:25:26.349Z,103826.39
2019-02-23T05:27:55.047Z,103822.50
2019-02-23T05:30:23.849Z,103836.22
2019-02-23T05:32:52.541Z,103830.99
2019-02-23T05:35:21.218Z,103829.05
2019-02-23T05:37:49.998Z,103835.75
2019-02-23T05:40:18.683Z,103830.16
2019-02-23T05:42:47.743Z,103829.93
2019-02-23T05:45:16.678Z,103706.48
2019-02-23T05:47:45.349Z,103813.44
2019-02-23T05:50:14.174Z,103822.78
2019-02-23T05:52:43.031Z,103821.94
2019-02-23T05:55:11.686Z,103824.61
2019-02-23T05:57:40.322Z,103818.05
2019-02-23T06:00:14.765Z,103825.70
2019-02-23T06:02:45.277Z,103818.06
2019-02-23T06:05:14.146Z,103821.23
2019-02-23T06:07:44.017Z,103816.52
2019-02-23T06:10:12.770Z,103812.76
2019-02-23T06:12:41.591Z,103823.52
2019-02-23T06:15:12.483Z,103817.84
2019-02-23T06:17:41.259Z,103818.80
2019-02-23T06:20:10.934Z,103828.25
2019-02-23T06:22:39.732Z,103822.92
2019-02-23T06:25:09.878Z,103821.72
2019-02-23T06:27:38.610Z,103819.04
2019-02-23T06:30:10.388Z,103821.35
2019-02-23T06:32:39.112Z,103822.78
2019-02-23T06:35:10.223Z,103824.36
2019-02-23T06:37:38.964Z,103820.11
2019-02-23T06:40:12.215Z,103819.50
2019-02-23T06:42:41.019Z,103823.88
2019-02-23T06:45:12.205Z,103823.04
2019-02-23T06:47:41.007Z,103829.95
2019-02-23T06:50:09.838Z,103828.88
2019-02-23T06:52:38.584Z,103835.08
2019-02-23T06:55:08.123Z,103842.95
2019-02-23T06:57:37.994Z,103847.17
2019-02-23T07:00:09.753Z,103844.11
2019-02-23T07:02:38.558Z,103846.78
2019-02-23T07:05:07.599Z,103847.98
2019-02-23T07:07:36.357Z,103849.80
2019-02-23T07:10:08.593Z,103850.77
2019-02-23T07:12:37.487Z,103850.26
2019-02-23T07:15:08.327Z,103857.79
2019-02-23T07:17:37.028Z,103858.60
2019-02-23T07:20:08.382Z,103857.24
2019-02-23T07:22:37.167Z,103858.06
2019-02-23T07:25:08.182Z,103860.35
2019-02-23T07:27:36.928Z,103860.66
2019-02-23T07:30:08.545Z,103865.80
2019-02-23T07:32:37.194Z,103868.24
2019-02-23T07:35:07.513Z,103866.56
2019-02-23T07:37:36.256Z,103868.12
2019-02-23T07:40:08.320Z,103861.66
2019-02-23T07:42:37.089Z,103858.55
2019-02-23T07:45:08.704Z,103860.37
2019-02-23T07:47:37.575Z,103858.14
2019-02-23T07:50:11.704Z,103857.75
2019-02-23T07:52:40.398Z,103855.51
2019-02-23T07:55:09.407Z,103851.98
2019-02-23T07:57:38.100Z,103853.33
2019-02-23T08:00:10.705Z,103851.34
2019-02-23T08:02:39.749Z,103857.14
2019-02-23T08:05:10.712Z,103863.48
2019-02-23T08:07:40.080Z,103850.08
2019-02-23T08:10:11.847Z,103849.30
2019-02-23T08:12:40.680Z,103844.03
2019-02-23T08:15:11.782Z,103847.36
2019-02-23T08:17:40.570Z,103855.36
2019-02-23T08:20:16.560Z,103737.11
2019-02-23T08:22:45.249Z,103864.53
2019-02-23T08:25:17.188Z,103865.34
2019-02-23T08:27:46.651Z,103869.69
2019-02-23T08:30:19.286Z,103862.31
2019-02-23T08:32:49.186Z,103859.03
2019-02-23T08:35:24.680Z,103871.52
2019-02-23T08:38:03.319Z,103870.59
2019-02-23T08:40:34.227Z,103755.45
2019-02-23T08:43:03.217Z,103860.30
2019-02-23T08:45:32.213Z,103863.28
2019-02-23T08:48:01.039Z,103862.48
2019-02-23T08:50:29.869Z,103870.19
2019-02-23T08:53:01.266Z,103865.48
2019-02-23T08:55:31.103Z,103807.77
2019-02-23T08:58:00.668Z,103869.54
2019-02-23T09:00:30.478Z,103872.11
2019-02-23T09:02:59.252Z,103870.58
2019-02-23T09:05:28.122Z,103869.92
2019-02-23T09:07:56.862Z,103864.75
2019-02-23T09:10:25.790Z,103862.83
2019-02-23T09:12:54.816Z,103863.33
2019-02-23T09:15:24.277Z,103865.18
2019-02-23T09:17:53.297Z,103864.44
2019-02-23T09:20:29.296Z,103860.36
2019-02-23T09:23:00.158Z,103864.93
2019-02-23T09:25:26.073Z,103858.75
2019-02-23T09:27:57.578Z,103854.52
2019-02-23T09:30:26.819Z,103853.26
2019-02-23T09:33:07.442Z,103847.38
2019-02-23T09:35:39.579Z,103846.20
2019-02-23T09:38:08.319Z,103851.38
2019-02-23T09:40:39.649Z,103847.43
2019-02-23T09:43:13.421Z,103853.36
2019-02-23T09:45:44.151Z,103842.88
2019-02-23T09:48:12.926Z,103835.37
2019-02-23T09:50:41.743Z,103831.73
2019-02-23T09:53:11.574Z,103821.10
2019-02-23T09:55:40.872Z,103822.86
2019-02-23T09:58:09.615Z,103806.33
2019-02-23T10:00:38.536Z,103809.74
2019-02-23T10:03:07.268Z,103806.20
2019-02-23T10:05:38.138Z,103804.42
2019-02-23T10:08:06.512Z,103803.38
2019-02-23T10:10:36.912Z,103796.26
2019-02-23T10:13:11.235Z,103798.89
2019-02-23T10:15:41.110Z,103802.41
2019-02-23T10:18:13.742Z,103800.33
2019-02-23T10:20:44.006Z,103792.60
2019-02-23T10:23:21.571Z,103799.82
2019-02-23T10:25:45.450Z,103799.28
2019-02-23T10:28:14.532Z,103806.84
2019-02-23T10:30:48.082Z,103791.05
2019-02-23T10:33:47.687Z,103791.05
2019-02-23T10:36:35.658Z,103804.05
2019-02-23T10:39:25.067Z,103801.86
2019-02-23T10:41:55.408Z,103803.35
2019-02-23T10:44:34.855Z,103807.93
2019-02-23T10:47:12.756Z,103807.93
2019-02-23T10:49:41.554Z,103795.77
2019-02-23T10:52:11.512Z,103794.58
2019-02-23T10:54:40.536Z,103789.77
2019-02-23T10:57:10.375Z,103790.08
2019-02-23T10:59:39.243Z,103786.30
2019-02-23T11:02:08.865Z,103771.17
2019-02-23T11:04:38.109Z,103776.44
2019-02-23T11:07:06.787Z,103778.11
2019-02-23T11:09:37.252Z,103773.89
2019-02-23T11:12:05.978Z,103779.71
2019-02-23T11:14:34.707Z,103766.69
2019-02-23T11:17:06.534Z,103766.26
2019-02-23T11:19:37.547Z,103760.80
2019-02-23T11:22:06.596Z,103762.94
2019-02-23T11:24:35.470Z,103768.78
2019-02-23T11:27:05.371Z,103763.72
2019-02-23T11:29:34.302Z,103777.03
2019-02-23T11:32:03.066Z,103761.41
2019-02-23T11:34:32.020Z,103758.67
2019-02-23T11:37:01.156Z,103756.41
2019-02-23T11:39:29.864Z,103757.52
2019-02-23T11:41:58.587Z,103749.29
2019-02-23T11:44:27.481Z,103749.25
2019-02-23T11:47:00.652Z,103741.73
2019-02-23T11:49:29.338Z,103736.66
2019-02-23T11:51:58.096Z,103735.58
2019-02-23T11:54:26.902Z,103737.39
2019-02-23T11:56:55.578Z,103738.36
2019-02-23T11:59:24.343Z,103732.57
2019-02-23T12:01:53.105Z,103730.40
2019-02-23T12:04:21.921Z,103733.33
2019-02-23T12:06:50.655Z,103738.14
2019-02-23T12:09:19.307Z,103738.35
2019-02-23T12:11:48.082Z,103737.67
2019-02-23T12:14:16.810Z,103735.64
2019-02-23T12:16:45.454Z,103732.75
2019-02-23T12:19:14.196Z,103727.41
2019-02-23T12:21:42.886Z,103728.03
2019-02-23T12:24:11.566Z,103718.70
2019-02-23T12:26:40.269Z,103708.19
2019-02-23T12:29:08.961Z,103712.02
2019-02-23T12:31:37.858Z,103705.62
2019-02-23T12:34:06.530Z,103712.26
2019-02-23T12:36:35.173Z,103715.44
2019-02-23T12:39:05.683Z,103714.58
2019-02-23T12:41:34.450Z,103709.97
2019-02-23T12:44:03.211Z,103703.94
2019-02-23T12:46:31.919Z,103701.20
2019-02-23T12:49:00.544Z,103705.73
2019-02-23T12:51:29.303Z,103702.55
2019-02-23T12:53:58.050Z,103692.70
2019-02-23T12:56:26.880Z,103698.38
2019-02-23T12:58:55.718Z,103695.95
2019-02-23T13:01:24.605Z,103692.36
2019-02-23T13:03:53.346Z,103686.80
2019-02-23T13:06:21.994Z,103678.77
2019-02-23T13:09:13.162Z,103674.58
2019-02-23T13:11:44.305Z,103673.78
2019-02-23T13:14:38.481Z,103665.72
2019-02-23T13:17:21.859Z,103663.08
2019-02-23T13:20:14.469Z,103664.02
2019-02-23T13:22:54.809Z,103662.29
2019-02-23T13:25:32.282Z,103661.02
2019-02-23T13:28:20.453Z,103664.48
2019-02-23T13:31:00.938Z,103661.02
2019-02-23T13:33:43.029Z,103660.34
2019-02-23T13:36:25.654Z,103670.20
2019-02-23T13:39:07.093Z,103667.33
2019-02-23T13:41:43.355Z,103664.48
2019-02-23T13:44:19.428Z,103667.44
2019-02-23T13:47:04.693Z,103676.45
2019-02-23T13:50:11.124Z,103673.11
2019-02-23T13:53:01.402Z,103659.48
2019-02-23T13:55:52.935Z,103661.29
2019-02-23T13:58:30.531Z,103664.42
2019-02-23T14:01:02.258Z,103652.50
2019-02-23T14:03:36.591Z,103647.27
2019-02-23T14:06:20.144Z,103650.96
2019-02-23T14:09:09.029Z,103649.55
2019-02-23T14:12:03.458Z,103641.13
2019-02-23T14:14:40.983Z,103648.11
2019-02-23T14:17:15.343Z,103648.15
2019-02-23T14:20:05.233Z,103637.38
2019-02-23T14:22:48.750Z,103641.52
2019-02-23T14:25:35.438Z,103634.63
2019-02-23T14:28:18.891Z,103629.97
2019-02-23T14:30:56.238Z,103629.64
2019-02-23T14:33:27.847Z,103629.53
2019-02-23T14:36:11.628Z,103627.06
2019-02-23T14:39:05.590Z,103624.38
2019-02-23T14:41:43.043Z,103616.23
2019-02-23T14:44:17.282Z,103619.23
2019-02-23T14:46:54.688Z,103616.26
2019-02-23T14:49:32.007Z,103611.16
2019-02-23T14:52:18.677Z,103608.89
2019-02-23T14:55:14.229Z,103610.03
2019-02-23T14:57:57.640Z,103612.81
2019-02-23T15:00:35.189Z,103611.17
2019-02-23T15:03:13.730Z,103609.06
2019-02-23T15:05:57.365Z,103613.81
2019-02-23T15:08:47.010Z,103609.20
2019-02-23T15:11:33.569Z,103609.20
2019-02-23T15:14:08.004Z,103615.86
2019-02-23T15:16:59.048Z,103617.19
2019-02-23T15:19:30.785Z,103614.05
2019-02-23T15:22:35.390Z,103616.10
2019-02-23T15:25:13.142Z,103617.48
2019-02-23T15:27:44.293Z,103615.89
2019-02-23T15:30:21.559Z,103612.84
2019-02-23T15:33:13.953Z,103612.48
2019-02-23T15:35:52.428Z,103612.08
2019-02-23T15:38:33.480Z,103608.34
2019-02-23T15:41:05.163Z,103607.72
2019-02-23T15:43:56.366Z,103604.87
2019-02-23T15:46:39.266Z,103600.27
2019-02-23T15:49:31.789Z,103598.28
2019-02-23T15:52:02.274Z,103606.17
2019-02-23T15:54:30.954Z,103603.27
2019-02-23T15:57:00.182Z,103610.53
2019-02-23T15:59:28.967Z,103607.64
2019-02-23T16:01:57.615Z,103604.53
2019-02-23T16:04:26.459Z,103600.63
2019-02-23T16:06:55.044Z,103598.94
2019-02-23T16:09:23.800Z,103598.41
2019-02-23T16:11:52.416Z,103596.66
2019-02-23T16:14:21.100Z,103613.22
2019-02-23T16:16:49.937Z,103600.09
2019-02-23T16:19:19.171Z,103594.97
2019-02-23T16:21:47.958Z,103591.67
2019-02-23T16:24:16.816Z,103593.55
2019-02-23T16:26:51.066Z,103590.09
2019-02-23T16:29:19.142Z,103596.16
2019-02-23T16:31:48.087Z,103598.23
2019-02-23T16:34:17.366Z,103603.16
2019-02-23T16:36:46.233Z,103606.14
2019-02-23T16:39:14.960Z,103613.14
2019-02-23T16:41:43.946Z,103613.66
2019-02-23T16:44:12.599Z,103615.86
2019-02-23T16:46:41.540Z,103624.95
2019-02-23T16:49:12.947Z,103629.27
2019-02-23T16:51:41.709Z,103632.58
2019-02-23T16:54:10.470Z,103628.88
2019-02-23T16:56:39.275Z,103636.06
2019-02-23T16:59:07.918Z,103643.67
2019-02-23T17:01:36.688Z,103641.41
2019-02-23T17:04:05.419Z,103646.19
2019-02-23T17:06:34.088Z,103638.78
2019-02-23T17:09:02.897Z,103645.39
2019-02-23T17:11:34.385Z,103641.71
2019-02-23T17:14:03.298Z,103642.57
2019-02-23T17:16:32.593Z,103640.58
2019-02-23T17:19:01.653Z,103644.83
2019-02-23T17:21:30.620Z,103647.73
2019-02-23T17:23:59.598Z,103640.00
2019-02-23T17:26:29.000Z,103639.36
2019-02-23T17:28:57.782Z,103640.05
2019-02-23T17:31:26.861Z,103641.95
2019-02-23T17:33:55.578Z,103639.06
2019-02-23T17:36:24.271Z,103644.16
2019-02-23T17:38:52.999Z,103640.17
2019-02-23T17:41:21.786Z,103648.11
2019-02-23T17:43:50.493Z,103655.04
2019-02-23T17:46:19.250Z,103650.80
2019-02-23T17:48:47.976Z,103651.34
2019-02-23T17:51:16.643Z,103644.09
2019-02-23T17:53:45.202Z,103641.55
2019-02-23T17:56:14.735Z,103639.53
2019-02-23T17:58:43.463Z,103632.32
2019-02-23T18:01:12.223Z,103636.36
2019-02-23T18:03:44.245Z,103630.80
2019-02-23T18:06:12.872Z,103633.83
2019-02-23T18:08:41.628Z,103631.45
2019-02-23T18:11:10.715Z,103631.61
2019-02-23T18:13:39.591Z,103626.89
2019-02-23T18:16:08.410Z,103622.53
2019-02-23T18:18:37.162Z,103622.52
2019-02-23T18:21:06.288Z,103628.06
2019-02-23T18:23:35.083Z,103622.30
2019-02-23T18:26:03.844Z,103628.54
2019-02-23T18:28:33.459Z,103623.98
2019-02-23T18:31:02.490Z,103625.16
2019-02-23T18:33:31.147Z,103624.95
2019-02-23T18:36:03.398Z,103623.55
2019-02-23T18:38:32.415Z,103625.72
2019-02-23T18:41:01.129Z,103625.55
2019-02-23T18:43:34.863Z,103626.72
2019-02-23T18:46:03.945Z,103616.92
2019-02-23T18:48:32.726Z,103616.94
2019-02-23T18:51:04.671Z,103613.02
2019-02-23T18:53:34.774Z,103612.96
2019-02-23T18:56:06.036Z,103608.61
2019-02-23T18:58:34.669Z,103611.94
2019-02-23T19:01:03.458Z,103607.81
2019-02-23T19:03:32.086Z,103600.06
2019-02-23T19:06:09.632Z,103599.99
2019-02-23T19:08:39.050Z,103598.89
2019-02-23T19:11:07.803Z,103593.80
2019-02-23T19:13:36.740Z,103595.89
2019-02-23T19:16:05.679Z,103589.17
2019-02-23T19:18:34.700Z,103593.97
2019-02-23T19:21:03.452Z,103597.28
2019-02-23T19:23:32.086Z,103593.88
2019-02-23T19:26:01.234Z,103597.66
2019-02-23T19:28:29.872Z,103592.17
2019-02-23T19:30:58.556Z,103599.33
2019-02-23T19:33:27.318Z,103592.80
2019-02-23T19:35:56.029Z,103596.85
2019-02-23T19:38:24.602Z,103598.25
2019-02-23T19:40:53.362Z,103605.05
2019-02-23T19:43:21.951Z,103606.23
2019-02-23T19:45:50.601Z,103605.64
2019-02-23T19:48:20.409Z,103608.84
2019-02-23T19:50:52.599Z,103602.02
2019-02-23T19:53:22.097Z,103597.34
2019-02-23T19:55:51.663Z,103597.70
2019-02-23T19:58:21.228Z,103597.83
2019-02-23T20:00:50.849Z,103592.73
2019-02-23T20:03:20.530Z,103591.63
2019-02-23T20:05:50.126Z,103588.58
2019-02-23T20:08:19.776Z,103588.39
2019-02-23T20:10:49.722Z,103588.97
2019-02-23T20:13:19.327Z,103584.86
2019-02-23T20:15:48.128Z,103590.50
2019-02-23T20:18:16.848Z,103590.25
2019-02-23T20:20:45.884Z,103589.16
2019-02-23T20:23:14.632Z,103581.98
2019-02-23T20:25:43.338Z,103577.80
2019-02-23T20:28:12.146Z,103580.52
2019-02-23T20:30:40.897Z,103574.17
2019-02-23T20:33:09.641Z,103574.89
2019-02-23T20:35:38.451Z,103577.27
2019-02-23T20:38:07.308Z,103578.91
2019-02-23T20:40:37.310Z,103578.98
2019-02-23T20:43:05.943Z,103583.89
2019-02-23T20:45:34.579Z,103577.92
2019-02-23T20:48:03.455Z,103574.77
2019-02-23T20:50:32.201Z,103575.25
2019-02-23T20:53:00.843Z,103574.04
2019-02-23T20:55:29.448Z,103571.93
2019-02-23T20:57:58.939Z,103569.24
2019-02-23T21:00:27.706Z,103569.89
2019-02-23T21:02:56.381Z,103570.38
2019-02-23T21:05:25.184Z,103570.67
2019-02-23T21:07:55.079Z,103574.97
2019-02-23T21:10:24.735Z,103580.16
2019-02-23T21:12:53.551Z,103576.92
2019-02-23T21:15:22.265Z,103585.19
2019-02-23T21:17:51.004Z,103585.39
2019-02-23T21:20:19.633Z,103586.56
2019-02-23T21:22:48.580Z,103587.21
2019-02-23T21:25:17.265Z,103590.25
2019-02-23T21:27:46.011Z,103590.17
2019-02-23T21:30:14.736Z,103584.55
2019-02-23T21:32:43.340Z,103585.75
2019-02-23T21:35:12.142Z,103583.48
2019-02-23T21:37:46.474Z,103581.30
2019-02-23T21:40:15.645Z,103581.58
2019-02-23T21:42:44.378Z,103584.81
2019-02-23T21:45:13.353Z,103587.34
2019-02-23T21:47:42.101Z,103585.59
2019-02-23T21:50:11.253Z,103583.48
2019-02-23T21:52:40.006Z,103583.67
2019-02-23T21:55:10.824Z,103586.53
2019-02-23T21:57:40.726Z,103590.81
2019-02-23T22:00:14.343Z,103588.87
2019-02-23T22:02:43.925Z,103588.87
2019-02-23T22:05:13.113Z,103598.02
2019-02-23T22:07:41.922Z,103593.80
2019-02-23T22:10:10.935Z,103593.22
2019-02-23T22:12:39.766Z,103594.12
2019-02-23T22:15:10.836Z,103596.00
2019-02-23T22:17:39.732Z,103601.67
2019-02-23T22:20:09.378Z,103600.29
2019-02-23T22:22:38.457Z,103604.03
2019-02-23T22:25:07.268Z,103607.34
2019-02-23T22:27:35.915Z,103603.75
2019-02-23T22:30:07.981Z,103611.44
2019-02-23T22:32:37.366Z,103614.38
2019-02-23T22:35:06.509Z,103615.23
2019-02-23T22:37:35.266Z,103611.68
2019-02-23T22:40:07.702Z,103619.95
2019-02-23T22:42:36.534Z,103625.58
2019-02-23T22:45:07.394Z,103622.09
2019-02-23T22:47:36.186Z,103620.02
2019-02-23T22:50:07.765Z,103619.09
2019-02-23T22:52:36.664Z,103624.80
2019-02-23T22:55:07.723Z,103625.79
2019-02-23T22:57:40.848Z,103626.89
2019-02-23T23:00:32.530Z,103628.88
2019-02-23T23:03:01.213Z,103618.03
2019-02-23T23:05:30.349Z,103630.25
2019-02-23T23:07:59.461Z,103630.25
2019-02-23T23:10:28.225Z,103633.70
2019-02-23T23:12:57.801Z,103633.22
2019-02-23T23:15:27.210Z,103625.59
2019-02-23T23:17:56.106Z,103632.03
2019-02-23T23:20:24.839Z,103636.27
2019-02-23T23:22:53.634Z,103622.82
2019-02-23T23:25:22.437Z,103624.41
2019-02-23T23:27:51.157Z,103623.70
2019-02-23T23:30:19.970Z,103622.39
2019-02-23T23:32:48.918Z,103631.09
2019-02-23T23:35:18.447Z,103631.33
2019-02-23T23:37:47.150Z,103635.94
2019-02-23T23:40:15.744Z,103628.55
2019-02-23T23:42:44.402Z,103634.36
2019-02-23T23:45:13.699Z,103635.57
2019-02-23T23:47:42.764Z,103634.56
2019-02-23T23:50:11.670Z,103623.80
2019-02-23T23:52:40.379Z,103617.25
2019-02-23T23:55:09.392Z,103621.98
2019-02-23T23:57:38.132Z,103627.10
